EGNM/LBA METAR and TAF weather

Enter ICAO airport designator
Station Type Date Time Source
EGNM METAR 2021/02/26 20:20 UTC NOAA

EGNM 262020Z 26005KT CAVOK 04/02 Q1037


Station Type Date Time Source
EGNM Decoded METAR 2021/02/26 20:20 UTC NOAA

Leeds And Bradford, United Kingdom (EGNM) 53-52N 001-39W
Feb 26, 2021 - 03:20 PM EST / 2021.02.26 2020 UTC
Wind: from the W (260 degrees) at 6 MPH (5 KT):0
Visibility: greater than 7 mile(s):0
Temperature: 39 F (4 C)
Dew Point: 35 F (2 C)
Relative Humidity: 86%
Pressure (altimeter): 30.62 in. Hg (1037 hPa)
ob: EGNM 262020Z 26005KT CAVOK 04/02 Q1037
cycle: 20

Station Type Date Time Source
EGNM TAF 2021/02/26 18:42 UTC NOAA

TAF TAF EGNM 262238Z 2618/2718 CNL

Example: see airport list